createdAt,value
2019-02-28T00:01:47.179Z,63.30
2019-02-28T00:04:14.173Z,62.90
2019-02-28T00:06:44.068Z,63.20
2019-02-28T00:09:09.652Z,63.50
2019-02-28T00:11:39.570Z,63.30
2019-02-28T00:14:04.973Z,63.10
2019-02-28T00:16:31.703Z,63.80
2019-02-28T00:18:58.476Z,63.80
2019-02-28T00:21:25.227Z,63.40
2019-02-28T00:23:56.463Z,64.50
2019-02-28T00:26:20.547Z,63.70
2019-02-28T00:28:47.297Z,63.80
2019-02-28T00:31:15.321Z,63.80
2019-02-28T00:33:42.224Z,63.70
2019-02-28T00:36:08.972Z,63.50
2019-02-28T00:38:35.743Z,63.30
2019-02-28T00:41:02.482Z,63.50
2019-02-28T00:43:29.271Z,63.70
2019-02-28T00:45:56.004Z,63.40
2019-02-28T00:48:22.744Z,63.70
2019-02-28T00:50:49.625Z,63.70
2019-02-28T00:53:16.437Z,63.70
2019-02-28T00:55:45.965Z,63.50
2019-02-28T00:58:11.799Z,63.30
2019-02-28T01:00:38.546Z,63.20
2019-02-28T01:03:05.290Z,63.50
2019-02-28T01:05:32.101Z,63.10
2019-02-28T01:07:58.838Z,62.50
2019-02-28T01:10:25.663Z,63.30
2019-02-28T01:12:54.314Z,63.20
2019-02-28T01:15:21.104Z,63.10
2019-02-28T01:17:47.820Z,63.50
2019-02-28T01:20:16.096Z,63.40
2019-02-28T01:22:43.245Z,63.60
2019-02-28T01:25:15.668Z,63.30
2019-02-28T01:27:42.420Z,62.90
2019-02-28T01:30:16.467Z,63.20
2019-02-28T01:32:43.468Z,63.30
2019-02-28T01:35:10.617Z,63.00
2019-02-28T01:37:37.360Z,63.30
2019-02-28T01:40:07.652Z,63.50
2019-02-28T01:42:34.392Z,63.60
2019-02-28T01:45:01.124Z,63.60
2019-02-28T01:47:27.915Z,64.30
2019-02-28T01:49:57.703Z,64.80
2019-02-28T01:52:23.238Z,64.60
2019-02-28T01:54:50.015Z,64.70
2019-02-28T01:57:16.746Z,64.60
2019-02-28T01:59:43.534Z,64.80
2019-02-28T02:02:10.244Z,64.90
2019-02-28T02:04:36.972Z,64.80
2019-02-28T02:07:03.772Z,64.20
2019-02-28T02:09:30.493Z,64.30
2019-02-28T02:11:57.973Z,64.70
2019-02-28T02:14:25.745Z,64.40
2019-02-28T02:16:52.460Z,64.60
2019-02-28T02:19:19.193Z,64.70
2019-02-28T02:21:45.982Z,64.70
2019-02-28T02:24:12.717Z,64.70
2019-02-28T02:26:42.370Z,65.20
2019-02-28T02:29:08.097Z,64.80
2019-02-28T02:31:35.047Z,64.80
2019-02-28T02:34:01.842Z,64.90
2019-02-28T02:36:28.608Z,64.90
2019-02-28T02:38:55.326Z,64.80
2019-02-28T02:41:22.122Z,64.80
2019-02-28T02:43:48.851Z,64.80
2019-02-28T02:46:20.400Z,64.30
2019-02-28T02:48:44.161Z,64.60
2019-02-28T02:51:12.381Z,64.50
2019-02-28T02:53:42.145Z,64.50
2019-02-28T02:56:08.052Z,64.90
2019-02-28T02:58:34.773Z,65.00
2019-02-28T03:01:01.536Z,65.10
2019-02-28T03:03:28.265Z,64.70
2019-02-28T03:05:55.035Z,64.90
2019-02-28T03:08:21.760Z,64.70
2019-02-28T03:10:51.909Z,65.00
2019-02-28T03:13:17.081Z,64.90
2019-02-28T03:15:43.802Z,65.30
2019-02-28T03:18:10.589Z,65.30
2019-02-28T03:20:41.175Z,65.60
2019-02-28T03:23:05.847Z,65.50
2019-02-28T03:25:32.662Z,64.70
2019-02-28T03:27:59.396Z,64.60
2019-02-28T03:30:31.280Z,65.20
2019-02-28T03:32:54.737Z,64.70
2019-02-28T03:35:21.653Z,65.70
2019-02-28T03:37:48.491Z,65.30
2019-02-28T03:40:15.274Z,65.30
2019-02-28T03:42:42.029Z,65.30
2019-02-28T03:45:12.129Z,65.30
2019-02-28T03:47:38.926Z,65.90
2019-02-28T03:50:07.740Z,65.70
2019-02-28T03:52:41.829Z,64.60
2019-02-28T03:55:06.796Z,65.00
2019-02-28T03:57:33.537Z,65.60
2019-02-28T04:00:00.478Z,66.00
2019-02-28T04:02:27.323Z,65.90
2019-02-28T04:04:54.176Z,65.60
2019-02-28T04:07:20.953Z,65.70
2019-02-28T04:09:47.693Z,65.10
2019-02-28T04:12:14.419Z,65.00
2019-02-28T04:14:41.216Z,64.70
2019-02-28T04:17:07.927Z,64.90
2019-02-28T04:19:34.726Z,64.70
2019-02-28T04:22:01.475Z,64.00
2019-02-28T04:24:28.215Z,64.50
2019-02-28T04:26:54.994Z,64.70
2019-02-28T04:29:21.726Z,65.00
2019-02-28T04:31:51.381Z,65.30
2019-02-28T04:34:17.051Z,65.00
2019-02-28T04:36:43.764Z,65.00
2019-02-28T04:39:10.557Z,65.20
2019-02-28T04:41:37.292Z,64.90
2019-02-28T04:44:04.033Z,64.90
2019-02-28T04:46:31.831Z,65.10
2019-02-28T04:48:59.247Z,64.80
2019-02-28T04:51:25.981Z,64.90
2019-02-28T04:53:53.764Z,64.90
2019-02-28T04:56:20.677Z,65.40
2019-02-28T04:58:47.414Z,65.20
2019-02-28T05:01:14.179Z,65.70
2019-02-28T05:03:40.944Z,64.70
2019-02-28T05:06:07.657Z,64.70
2019-02-28T05:08:38.623Z,65.30
2019-02-28T05:11:02.999Z,64.80
2019-02-28T05:13:29.748Z,65.50
2019-02-28T05:15:56.507Z,65.40
2019-02-28T05:18:23.247Z,65.00
2019-02-28T05:20:49.978Z,64.40
2019-02-28T05:23:16.815Z,64.40
2019-02-28T05:25:43.531Z,64.50
2019-02-28T05:28:10.253Z,63.90
2019-02-28T05:30:37.048Z,64.30
2019-02-28T05:33:06.672Z,64.10
2019-02-28T05:35:32.305Z,64.20
2019-02-28T05:37:59.119Z,64.10
2019-02-28T05:40:25.851Z,64.40
2019-02-28T05:42:54.605Z,64.50
2019-02-28T05:45:21.167Z,64.00
2019-02-28T05:47:47.903Z,64.30
2019-02-28T05:50:16.535Z,64.70
2019-02-28T05:52:43.206Z,64.60
2019-02-28T05:55:10.943Z,64.70
2019-02-28T05:57:39.306Z,64.40
2019-02-28T06:00:10.432Z,64.40
2019-02-28T06:02:37.181Z,64.30
2019-02-28T06:05:08.407Z,64.10
2019-02-28T06:07:34.911Z,64.20
2019-02-28T06:10:01.634Z,64.00
2019-02-28T06:12:28.415Z,63.70
2019-02-28T06:14:55.134Z,63.90
2019-02-28T06:17:21.933Z,64.50
2019-02-28T06:19:48.681Z,64.10
2019-02-28T06:22:15.411Z,64.20
2019-02-28T06:24:44.858Z,64.90
2019-02-28T06:27:10.759Z,64.90
2019-02-28T06:29:37.586Z,65.00
2019-02-28T06:32:04.345Z,64.80
2019-02-28T06:34:33.863Z,64.50
2019-02-28T06:37:03.835Z,64.00
2019-02-28T06:39:29.211Z,64.20
2019-02-28T06:41:55.948Z,65.00
2019-02-28T06:44:24.208Z,64.50
2019-02-28T06:46:51.324Z,64.70
2019-02-28T06:49:18.119Z,64.80
2019-02-28T06:51:44.836Z,64.60
2019-02-28T06:54:11.576Z,64.60
2019-02-28T06:56:38.397Z,64.50
2019-02-28T06:59:05.603Z,65.20
2019-02-28T07:01:32.451Z,65.70
2019-02-28T07:03:59.183Z,65.50
2019-02-28T07:06:25.905Z,65.10
2019-02-28T07:08:52.693Z,65.40
2019-02-28T07:11:39.152Z,65.30
2019-02-28T07:14:05.950Z,65.90
2019-02-28T07:16:34.417Z,65.60
2019-02-28T07:19:01.186Z,67.20
2019-02-28T07:21:27.984Z,65.40
2019-02-28T07:23:56.137Z,64.90
2019-02-28T07:26:22.867Z,65.00
2019-02-28T07:28:49.648Z,64.90
2019-02-28T07:31:16.398Z,66.80
2019-02-28T07:33:44.560Z,65.40
2019-02-28T07:36:11.719Z,63.90
2019-02-28T07:38:38.439Z,63.60
2019-02-28T07:41:05.172Z,63.90
2019-02-28T07:43:31.964Z,63.50
2019-02-28T07:45:58.686Z,63.40
2019-02-28T07:48:28.594Z,63.40
2019-02-28T07:50:54.005Z,63.00
2019-02-28T07:53:20.737Z,62.80
2019-02-28T07:55:47.470Z,62.90
2019-02-28T07:58:14.317Z,63.60
2019-02-28T08:00:41.051Z,63.50
2019-02-28T08:03:11.235Z,63.20
2019-02-28T08:05:37.047Z,63.50
2019-02-28T08:08:03.885Z,63.10
2019-02-28T08:10:32.917Z,63.20
2019-02-28T08:13:03.182Z,62.90
2019-02-28T08:15:28.730Z,63.00
2019-02-28T08:17:55.525Z,63.00
2019-02-28T08:20:22.245Z,63.10
2019-02-28T08:22:49.062Z,63.20
2019-02-28T08:25:15.950Z,63.20
2019-02-28T08:27:42.679Z,63.10
2019-02-28T08:30:26.428Z,62.30
2019-02-28T08:32:53.175Z,62.50
2019-02-28T08:35:19.904Z,63.50
2019-02-28T08:37:46.688Z,63.90
2019-02-28T08:40:17.611Z,63.60
2019-02-28T08:42:44.326Z,63.80
2019-02-28T08:45:13.909Z,63.70
2019-02-28T08:47:40.727Z,63.10
2019-02-28T08:50:11.548Z,62.80
2019-02-28T08:52:41.209Z,61.80
2019-02-28T08:55:13.712Z,61.50
2019-02-28T08:57:40.445Z,61.20
2019-02-28T09:00:19.525Z,60.80
2019-02-28T09:02:46.267Z,60.50
2019-02-28T09:05:14.206Z,60.00
2019-02-28T09:07:41.107Z,60.10
2019-02-28T09:10:23.693Z,60.00
2019-02-28T09:12:50.562Z,60.00
2019-02-28T09:15:17.899Z,59.90
2019-02-28T09:17:45.243Z,59.70
2019-02-28T09:20:16.033Z,60.00
2019-02-28T09:22:42.974Z,59.20
2019-02-28T09:25:23.048Z,58.90
2019-02-28T09:27:50.190Z,58.60
2019-02-28T09:30:44.946Z,58.50
2019-02-28T09:33:11.763Z,58.00
2019-02-28T09:35:38.503Z,57.80
2019-02-28T09:38:07.609Z,57.90
2019-02-28T09:40:33.851Z,58.50
2019-02-28T09:43:00.569Z,58.60
2019-02-28T09:45:29.666Z,58.60
2019-02-28T09:48:00.750Z,58.80
2019-02-28T09:50:25.150Z,59.00
2019-02-28T09:52:51.954Z,58.90
2019-02-28T09:55:18.690Z,58.60
2019-02-28T09:57:45.422Z,58.30
2019-02-28T10:00:19.294Z,58.00
2019-02-28T10:02:46.054Z,57.60
2019-02-28T10:05:13.097Z,56.50
2019-02-28T10:07:39.897Z,55.60
2019-02-28T10:10:20.821Z,55.30
2019-02-28T10:12:48.694Z,55.60
2019-02-28T10:15:22.458Z,55.90
2019-02-28T10:17:49.183Z,55.60
2019-02-28T10:20:34.270Z,55.70
2019-02-28T10:23:01.020Z,56.00
2019-02-28T10:25:27.755Z,54.40
2019-02-28T10:27:54.896Z,53.90
2019-02-28T10:30:31.593Z,55.10
2019-02-28T10:32:53.177Z,55.20
2019-02-28T10:35:19.927Z,55.00
2019-02-28T10:37:47.560Z,52.90
2019-02-28T10:40:18.715Z,51.60
2019-02-28T10:42:45.504Z,51.90
2019-02-28T10:45:14.122Z,49.00
2019-02-28T10:47:40.930Z,50.40
2019-02-28T10:50:20.228Z,50.50
2019-02-28T10:52:47.015Z,50.70
2019-02-28T10:55:15.975Z,50.10
2019-02-28T10:57:42.823Z,50.50
2019-02-28T11:00:36.034Z,47.80
2019-02-28T11:03:02.907Z,44.90
2019-02-28T11:05:38.059Z,44.40
2019-02-28T11:08:09.751Z,46.50
2019-02-28T11:10:41.233Z,45.10
2019-02-28T11:13:14.273Z,45.40
2019-02-28T11:15:41.130Z,42.40
2019-02-28T11:18:09.651Z,41.60
2019-02-28T11:20:38.089Z,40.00
2019-02-28T11:23:05.270Z,41.60
2019-02-28T11:25:34.747Z,42.30
2019-02-28T11:28:00.753Z,41.20
2019-02-28T11:30:29.977Z,40.40
2019-02-28T11:33:03.081Z,38.20
2019-02-28T11:35:26.586Z,37.60
2019-02-28T11:37:53.690Z,37.90
2019-02-28T11:40:22.603Z,36.30
2019-02-28T11:42:49.444Z,35.00
2019-02-28T11:45:31.992Z,34.10
2019-02-28T11:48:01.840Z,32.20
2019-02-28T11:50:28.638Z,30.70
2019-02-28T11:52:55.408Z,29.80
2019-02-28T11:55:22.265Z,27.90
2019-02-28T11:57:49.063Z,27.80
2019-02-28T12:00:28.187Z,26.90
2019-02-28T12:02:59.865Z,26.80
2019-02-28T12:05:24.108Z,26.00
2019-02-28T12:07:50.864Z,25.70
2019-02-28T12:10:17.751Z,25.20
2019-02-28T12:12:45.364Z,24.30
2019-02-28T12:15:16.078Z,23.50
2019-02-28T12:17:42.914Z,23.10
2019-02-28T12:20:12.469Z,22.30
2019-02-28T12:22:39.235Z,22.00
2019-02-28T12:25:10.327Z,20.90
2019-02-28T12:27:40.248Z,21.00
2019-02-28T12:30:15.381Z,21.00
2019-02-28T12:32:43.447Z,20.10
2019-02-28T12:35:11.181Z,20.10
2019-02-28T12:37:38.075Z,20.20
2019-02-28T12:40:22.062Z,20.80
2019-02-28T12:42:48.849Z,19.60
2019-02-28T12:45:24.412Z,19.40
2019-02-28T12:47:51.638Z,18.20
2019-02-28T12:50:18.597Z,18.40
2019-02-28T12:52:48.854Z,18.60
2019-02-28T12:55:18.567Z,17.80
2019-02-28T12:57:45.390Z,17.80
2019-02-28T13:00:38.135Z,18.40
2019-02-28T13:03:04.968Z,17.50
2019-02-28T13:05:31.787Z,17.80
2019-02-28T13:07:58.724Z,18.10
2019-02-28T13:10:27.993Z,17.60
2019-02-28T13:13:05.253Z,19.00
2019-02-28T13:15:22.880Z,17.50
2019-02-28T13:17:50.198Z,17.30
2019-02-28T13:20:34.739Z,18.60
2019-02-28T13:23:01.475Z,18.40
2019-02-28T13:25:28.217Z,17.50
2019-02-28T13:27:55.089Z,18.00
2019-02-28T13:30:25.240Z,17.80
2019-02-28T13:32:52.265Z,18.20
2019-02-28T13:35:31.261Z,17.40
2019-02-28T13:37:57.997Z,18.20
2019-02-28T13:40:24.891Z,18.20
2019-02-28T13:42:51.769Z,18.80
2019-02-28T13:45:22.951Z,19.00
2019-02-28T13:47:48.657Z,18.40
2019-02-28T13:50:32.605Z,18.40
2019-02-28T13:53:03.451Z,18.00
2019-02-28T13:55:27.852Z,18.90
2019-02-28T13:57:54.587Z,18.60
2019-02-28T14:00:25.937Z,19.30
2019-02-28T14:03:11.020Z,18.40
2019-02-28T14:05:40.529Z,18.00
2019-02-28T14:08:10.990Z,18.00
2019-02-28T14:10:35.179Z,18.60
2019-02-28T14:13:02.082Z,19.00
2019-02-28T14:15:33.635Z,18.70
2019-02-28T14:18:02.225Z,19.30
2019-02-28T14:20:29.309Z,19.70
2019-02-28T14:22:56.047Z,20.00
2019-02-28T14:25:22.829Z,19.20
2019-02-28T14:27:49.598Z,18.90
2019-02-28T14:30:19.665Z,19.10
2019-02-28T14:32:45.599Z,19.40
2019-02-28T14:35:22.722Z,18.20
2019-02-28T14:37:51.921Z,20.00
2019-02-28T14:40:17.939Z,18.90
2019-02-28T14:42:45.407Z,18.40
2019-02-28T14:45:24.426Z,19.10
2019-02-28T14:47:57.056Z,20.10
2019-02-28T14:50:19.978Z,20.60
2019-02-28T14:52:52.171Z,19.80
2019-02-28T14:55:20.002Z,20.60
2019-02-28T14:57:48.897Z,20.60
2019-02-28T15:00:27.763Z,21.10
2019-02-28T15:02:54.651Z,19.80
2019-02-28T15:05:21.671Z,18.60
2019-02-28T15:07:48.932Z,20.10
2019-02-28T15:10:21.644Z,20.00
2019-02-28T15:12:48.402Z,19.30
2019-02-28T15:15:19.565Z,21.30
2019-02-28T15:17:46.319Z,22.70
2019-02-28T15:20:13.752Z,23.90
2019-02-28T15:22:40.627Z,26.10
2019-02-28T15:25:15.262Z,27.80
2019-02-28T15:27:43.470Z,28.20
2019-02-28T15:30:30.515Z,30.00
2019-02-28T15:32:58.204Z,31.30
2019-02-28T15:35:24.953Z,30.70
2019-02-28T15:37:51.698Z,32.00
2019-02-28T15:40:27.661Z,32.30
2019-02-28T15:42:54.407Z,33.80
2019-02-28T15:45:21.219Z,34.10
2019-02-28T15:47:48.024Z,34.60
2019-02-28T15:50:17.185Z,36.40
2019-02-28T15:52:44.002Z,36.70
2019-02-28T15:55:17.137Z,38.40
2019-02-28T15:57:48.259Z,38.30
2019-02-28T16:00:25.089Z,38.00
2019-02-28T16:02:51.823Z,39.00
2019-02-28T16:05:18.761Z,40.40
2019-02-28T16:07:45.641Z,41.20
2019-02-28T16:10:23.042Z,41.50
2019-02-28T16:12:51.097Z,41.90
2019-02-28T16:15:18.091Z,41.60
2019-02-28T16:17:44.940Z,41.50
2019-02-28T16:20:13.509Z,43.00
2019-02-28T16:22:40.565Z,43.80
2019-02-28T16:25:18.462Z,43.10
2019-02-28T16:27:45.285Z,43.30
2019-02-28T16:30:15.732Z,44.10
2019-02-28T16:32:45.576Z,44.60
2019-02-28T16:35:14.587Z,44.50
2019-02-28T16:37:41.027Z,45.20
2019-02-28T16:40:11.950Z,45.00
2019-02-28T16:42:38.726Z,45.50
2019-02-28T16:45:10.565Z,44.80
2019-02-28T16:47:37.341Z,45.30
2019-02-28T16:50:08.690Z,46.50
2019-02-28T16:52:37.327Z,46.80
2019-02-28T16:55:08.133Z,46.20
2019-02-28T16:57:34.926Z,47.20
2019-02-28T17:00:04.086Z,48.10
2019-02-28T17:02:32.183Z,47.80
2019-02-28T17:04:59.676Z,47.50
2019-02-28T17:07:26.621Z,48.30
2019-02-28T17:09:53.357Z,47.70
2019-02-28T17:12:20.129Z,47.80
2019-02-28T17:14:48.308Z,48.40
2019-02-28T17:17:15.460Z,48.40
2019-02-28T17:19:42.216Z,48.70
2019-02-28T17:22:08.991Z,48.80
2019-02-28T17:24:35.755Z,48.50
2019-02-28T17:27:06.128Z,49.00
2019-02-28T17:29:31.079Z,49.30
2019-02-28T17:31:57.847Z,49.50
2019-02-28T17:34:25.286Z,49.30
2019-02-28T17:36:52.304Z,49.40
2019-02-28T17:39:19.195Z,49.30
2019-02-28T17:41:46.270Z,49.10
2019-02-28T17:44:27.330Z,49.60
2019-02-28T17:47:02.510Z,49.50
2019-02-28T17:49:46.671Z,50.00
2019-02-28T17:52:24.973Z,50.60
2019-02-28T17:55:31.147Z,49.30
2019-02-28T17:58:06.726Z,49.90
2019-02-28T18:00:48.192Z,50.60
2019-02-28T18:03:58.350Z,51.00
2019-02-28T18:07:13.222Z,51.10
2019-02-28T18:10:08.079Z,51.60
2019-02-28T18:12:55.432Z,51.60
2019-02-28T18:15:42.099Z,50.90
2019-02-28T18:18:48.191Z,51.40
2019-02-28T18:21:50.910Z,51.30
2019-02-28T18:25:14.082Z,51.40
2019-02-28T18:27:58.810Z,51.20
2019-02-28T18:31:07.698Z,50.80
2019-02-28T18:33:35.130Z,51.30
2019-02-28T18:36:05.114Z,51.30
2019-02-28T18:38:35.650Z,51.40
2019-02-28T18:41:05.421Z,51.40
2019-02-28T18:43:29.763Z,51.00
2019-02-28T18:45:57.740Z,51.40
2019-02-28T18:48:25.027Z,51.30
2019-02-28T18:50:52.155Z,51.30
2019-02-28T18:53:19.325Z,51.80
2019-02-28T18:55:46.441Z,51.50
2019-02-28T18:58:13.657Z,52.10
2019-02-28T19:00:40.803Z,51.60
2019-02-28T19:03:07.863Z,52.10
2019-02-28T19:05:34.973Z,52.30
2019-02-28T19:08:02.104Z,52.30
2019-02-28T19:10:29.195Z,52.60
2019-02-28T19:12:56.356Z,52.20
2019-02-28T19:15:23.510Z,52.40
2019-02-28T19:17:50.555Z,52.10
2019-02-28T19:20:17.758Z,51.90
2019-02-28T19:22:44.899Z,52.10
2019-02-28T19:25:12.051Z,52.00
2019-02-28T19:27:38.876Z,51.90
2019-02-28T19:30:12.806Z,52.40
2019-02-28T19:32:39.847Z,52.70
2019-02-28T19:35:07.025Z,52.60
2019-02-28T19:37:34.164Z,52.70
2019-02-28T19:40:01.055Z,52.80
2019-02-28T19:42:27.857Z,52.70
2019-02-28T19:44:54.621Z,52.70
2019-02-28T19:47:21.509Z,52.70
2019-02-28T19:49:48.776Z,52.90
2019-02-28T19:52:15.944Z,53.10
2019-02-28T19:54:43.003Z,53.00
2019-02-28T19:57:10.071Z,53.80
2019-02-28T19:59:36.837Z,53.70
2019-02-28T20:02:04.345Z,54.20
2019-02-28T20:04:31.121Z,54.20
2019-02-28T20:06:57.943Z,53.40
2019-02-28T20:09:24.671Z,53.00
2019-02-28T20:11:51.414Z,52.90
2019-02-28T20:14:18.272Z,53.30
2019-02-28T20:16:45.051Z,53.70
2019-02-28T20:19:11.846Z,54.30
2019-02-28T20:21:38.712Z,53.60
2019-02-28T20:24:05.958Z,54.20
2019-02-28T20:26:33.086Z,54.20
2019-02-28T20:29:00.032Z,54.30
2019-02-28T20:31:27.022Z,54.40
2019-02-28T20:33:53.757Z,54.50
2019-02-28T20:36:20.806Z,54.20
2019-02-28T20:38:47.531Z,54.90
2019-02-28T20:41:14.322Z,54.60
2019-02-28T20:43:41.151Z,54.20
2019-02-28T20:46:07.908Z,54.10
2019-02-28T20:48:34.644Z,54.10
2019-02-28T20:51:01.433Z,54.50
2019-02-28T20:53:28.163Z,54.20
2019-02-28T20:55:54.905Z,54.40
2019-02-28T20:58:21.706Z,54.40
2019-02-28T21:00:48.446Z,54.60
2019-02-28T21:03:15.197Z,53.80
2019-02-28T21:05:41.973Z,53.70
2019-02-28T21:08:08.708Z,54.20
2019-02-28T21:10:35.447Z,53.80
2019-02-28T21:13:02.361Z,53.30
2019-02-28T21:15:32.652Z,53.70
2019-02-28T21:17:59.415Z,54.10
2019-02-28T21:20:26.201Z,53.50
2019-02-28T21:22:52.928Z,53.20
2019-02-28T21:25:19.682Z,53.50
2019-02-28T21:27:46.447Z,53.40
2019-02-28T21:30:20.014Z,53.30
2019-02-28T21:32:46.798Z,53.30
2019-02-28T21:35:15.042Z,53.50
2019-02-28T21:37:41.879Z,53.50
2019-02-28T21:40:12.852Z,53.50
2019-02-28T21:42:39.588Z,53.90
2019-02-28T21:45:11.593Z,53.80
2019-02-28T21:47:40.135Z,53.80
2019-02-28T21:50:11.283Z,53.70
2019-02-28T21:52:38.084Z,53.60
2019-02-28T21:55:17.100Z,53.50
2019-02-28T21:57:43.896Z,53.90
2019-02-28T22:00:26.220Z,53.70
2019-02-28T22:02:53.013Z,53.60
2019-02-28T22:05:19.848Z,53.80
2019-02-28T22:07:46.590Z,53.90
2019-02-28T22:10:14.815Z,53.80
2019-02-28T22:12:41.593Z,55.10
2019-02-28T22:15:16.040Z,54.90
2019-02-28T22:17:44.564Z,55.10
2019-02-28T22:20:15.556Z,55.70
2019-02-28T22:22:46.855Z,55.40
2019-02-28T22:25:16.144Z,55.20
2019-02-28T22:27:45.867Z,54.60
2019-02-28T22:30:21.041Z,54.50
2019-02-28T22:32:47.771Z,54.40
2019-02-28T22:35:19.340Z,54.60
2019-02-28T22:37:46.216Z,54.60
2019-02-28T22:40:13.429Z,54.60
2019-02-28T22:42:40.223Z,54.30
2019-02-28T22:45:07.231Z,54.80
2019-02-28T22:47:33.977Z,55.10
2019-02-28T22:50:07.631Z,55.50
2019-02-28T22:52:37.436Z,55.40
2019-02-28T22:55:07.255Z,55.70
2019-02-28T22:57:34.375Z,56.10
2019-02-28T23:00:01.196Z,56.40
2019-02-28T23:02:29.224Z,55.60
2019-02-28T23:04:56.067Z,55.60
2019-02-28T23:07:22.808Z,55.90
2019-02-28T23:09:49.535Z,55.70
2019-02-28T23:12:16.297Z,55.70
2019-02-28T23:14:43.026Z,55.40
2019-02-28T23:17:09.814Z,55.00
2019-02-28T23:19:36.586Z,55.00
2019-02-28T23:22:03.320Z,55.20
2019-02-28T23:24:30.134Z,55.20
2019-02-28T23:27:14.652Z,54.70
2019-02-28T23:29:48.621Z,55.00
2019-02-28T23:32:31.988Z,55.40
2019-02-28T23:34:58.778Z,55.20
2019-02-28T23:37:25.510Z,55.30
2019-02-28T23:39:52.237Z,55.50
2019-02-28T23:42:19.034Z,55.40
2019-02-28T23:44:45.752Z,55.20
2019-02-28T23:47:12.497Z,54.90
2019-02-28T23:49:39.308Z,55.10
2019-02-28T23:52:06.039Z,55.30
2019-02-28T23:54:32.781Z,55.40
2019-02-28T23:56:59.561Z,55.70
2019-02-28T23:59:26.305Z,56.10
